Trace, Kentucky
Current Conditions -  °F | °C
As of 12:15 AM on Saturday 25 Oct 2014 (Local Time) from KFGX Reporting Station
Clear Clear  
Wind Chill: 47°   Ceiling: Unl
Heat Index: 49°   Visibility: 10mi
Dew Point: 40°   Wind: 5mph
Humidity: 70%   Direction: 220°SW
Pressure: 30.07"   Gusts: NA
Location:  38.4929°N, 83.3898°W
Report Text: KFGX 250415Z AUTO 22004KT 10SM CLR 09/04 A3007 RMK AO2 T00940042
Loading
Personal Weather Stations






























Interactive Weather Map
Tropical Storm Tracking
New forecast layout! Learn more

10-Day Weather Forecast

Advertisements
Track Severe Weather on mobile